createdAt,value
2018-09-22T00:00:22.374Z,1.20
2018-09-22T00:01:22.360Z,1.30
2018-09-22T00:02:22.353Z,1.90
2018-09-22T00:03:22.357Z,1.30
2018-09-22T00:04:22.329Z,1.40
2018-09-22T00:05:22.325Z,1.40
2018-09-22T00:06:22.312Z,1.40
2018-09-22T00:07:22.299Z,1.90
2018-09-22T00:08:22.333Z,1.30
2018-09-22T00:09:22.275Z,1.50
2018-09-22T00:10:22.263Z,1.40
2018-09-22T00:11:22.261Z,2.00
2018-09-22T00:12:22.242Z,1.40
2018-09-22T00:13:22.231Z,1.00
2018-09-22T00:14:22.237Z,1.40
2018-09-22T00:15:22.209Z,1.30
2018-09-22T00:16:22.198Z,2.20
2018-09-22T00:17:22.192Z,1.70
2018-09-22T00:18:22.176Z,1.70
2018-09-22T00:19:22.183Z,1.30
2018-09-22T00:20:22.156Z,1.90
2018-09-22T00:21:22.143Z,1.30
2018-09-22T00:22:22.134Z,1.50
2018-09-22T00:23:22.133Z,2.10
2018-09-22T00:24:22.124Z,1.10
2018-09-22T00:25:22.100Z,1.60
2018-09-22T00:26:22.089Z,1.60
2018-09-22T00:27:22.128Z,1.20
2018-09-22T00:28:22.067Z,1.50
2018-09-22T00:29:22.086Z,1.20
2018-09-22T00:30:22.057Z,2.40
2018-09-22T00:31:22.035Z,1.50
2018-09-22T00:32:22.024Z,1.90
2018-09-22T00:33:22.012Z,0.90
2018-09-22T00:34:22.017Z,1.30
2018-09-22T00:35:21.999Z,1.10
2018-09-22T00:36:21.986Z,0.80
2018-09-22T00:37:21.972Z,1.10
2018-09-22T00:38:21.959Z,1.10
2018-09-22T00:39:21.963Z,1.30
2018-09-22T00:40:21.936Z,2.00
2018-09-22T00:41:21.939Z,1.40
2018-09-22T00:42:21.914Z,1.70
2018-09-22T00:43:21.903Z,1.10
2018-09-22T00:44:21.908Z,1.60
2018-09-22T00:45:21.881Z,1.50
2018-09-22T00:46:21.874Z,0.90
2018-09-22T00:47:21.876Z,1.10
2018-09-22T00:48:21.850Z,0.80
2018-09-22T00:49:21.853Z,1.60
2018-09-22T00:50:21.826Z,1.30
2018-09-22T00:51:21.831Z,0.90
2018-09-22T00:52:21.805Z,1.20
2018-09-22T00:53:21.814Z,1.10
2018-09-22T00:54:21.799Z,1.20
2018-09-22T00:55:21.774Z,1.40
2018-09-22T00:56:21.761Z,1.20
2018-09-22T00:57:21.751Z,1.20
2018-09-22T00:58:21.745Z,1.40
2018-09-22T00:59:21.761Z,1.30
2018-09-22T01:00:21.717Z,2.00
2018-09-22T01:01:21.707Z,1.20
2018-09-22T01:02:21.698Z,1.20
2018-09-22T01:03:21.687Z,1.00
2018-09-22T01:04:21.695Z,1.20
2018-09-22T01:05:21.667Z,1.80
2018-09-22T01:06:21.653Z,1.20
2018-09-22T01:07:21.642Z,1.50
2018-09-22T01:08:21.630Z,1.60
2018-09-22T01:09:21.638Z,1.80
2018-09-22T01:10:21.609Z,1.30
2018-09-22T01:11:21.609Z,1.30
2018-09-22T01:12:21.587Z,1.10
2018-09-22T01:13:21.575Z,1.20
2018-09-22T01:14:21.588Z,1.10
2018-09-22T01:15:21.582Z,1.40
2018-09-22T01:16:21.542Z,1.50
2018-09-22T01:17:21.541Z,1.10
2018-09-22T01:18:21.520Z,1.00
2018-09-22T01:19:21.529Z,1.00
2018-09-22T01:20:21.506Z,1.40
2018-09-22T01:21:21.489Z,1.10
2018-09-22T01:22:21.477Z,1.60
2018-09-22T01:23:21.473Z,1.40
2018-09-22T01:24:21.474Z,1.50
2018-09-22T01:25:21.448Z,1.30
2018-09-22T01:26:21.442Z,1.10
2018-09-22T01:27:21.424Z,1.10
2018-09-22T01:28:21.414Z,1.20
2018-09-22T01:29:21.429Z,1.30
2018-09-22T01:30:21.391Z,1.20
2018-09-22T01:31:21.382Z,3.50
2018-09-22T01:32:21.383Z,1.80
2018-09-22T01:33:21.358Z,1.60
2018-09-22T01:34:21.362Z,2.50
2018-09-22T01:35:21.343Z,1.40
2018-09-22T01:36:21.328Z,2.20
2018-09-22T01:37:21.317Z,1.60
2018-09-22T01:38:21.304Z,2.10
2018-09-22T01:39:21.308Z,1.30
2018-09-22T01:40:21.284Z,2.50
2018-09-22T01:41:21.282Z,1.30
2018-09-22T01:42:21.262Z,1.70
2018-09-22T01:43:21.263Z,2.40
2018-09-22T01:44:21.275Z,2.20
2018-09-22T01:45:21.228Z,1.80
2018-09-22T01:46:21.217Z,2.30
2018-09-22T01:47:21.213Z,2.40
2018-09-22T01:48:21.201Z,2.40
2018-09-22T01:49:21.184Z,1.50
2018-09-22T01:50:21.190Z,2.00
2018-09-22T01:51:21.162Z,1.30
2018-09-22T01:52:21.161Z,2.30
2018-09-22T01:53:21.150Z,2.50
2018-09-22T01:54:21.143Z,2.20
2018-09-22T01:55:21.154Z,2.20
2018-09-22T01:56:21.110Z,1.20
2018-09-22T01:57:21.097Z,1.70
2018-09-22T01:58:21.091Z,1.60
2018-09-22T01:59:21.078Z,1.90
2018-09-22T02:00:21.091Z,2.30
2018-09-22T02:01:21.053Z,1.40
2018-09-22T02:02:21.043Z,2.70
2018-09-22T02:03:21.032Z,1.30
2018-09-22T02:04:21.021Z,2.50
2018-09-22T02:05:21.024Z,2.50
2018-09-22T02:06:21.011Z,1.60
2018-09-22T02:07:20.991Z,1.50
2018-09-22T02:08:20.976Z,1.10
2018-09-22T02:09:20.966Z,1.50
2018-09-22T02:10:20.969Z,2.40
2018-09-22T02:11:20.950Z,3.00
2018-09-22T02:12:20.945Z,2.00
2018-09-22T02:13:20.923Z,1.40
2018-09-22T02:14:20.912Z,2.00
2018-09-22T02:15:20.915Z,2.50
2018-09-22T02:16:20.896Z,1.70
2018-09-22T02:17:20.880Z,1.80
2018-09-22T02:18:20.884Z,1.70
2018-09-22T02:19:20.857Z,1.30
2018-09-22T02:20:20.865Z,1.70
2018-09-22T02:21:20.839Z,1.30
2018-09-22T02:22:20.823Z,2.40
2018-09-22T02:23:20.813Z,1.90
2018-09-22T02:24:20.819Z,1.40
2018-09-22T02:25:20.808Z,2.10
2018-09-22T02:26:20.781Z,1.90
2018-09-22T02:27:20.771Z,1.20
2018-09-22T02:28:20.758Z,1.10
2018-09-22T02:29:20.747Z,1.90
2018-09-22T02:30:20.765Z,1.50
2018-09-22T02:31:20.726Z,2.30
2018-09-22T02:32:20.716Z,1.70
2018-09-22T02:33:20.704Z,1.40
2018-09-22T02:34:20.692Z,1.90
2018-09-22T02:35:20.700Z,2.30
2018-09-22T02:36:20.683Z,1.40
2018-09-22T02:37:20.662Z,1.50
2018-09-22T02:38:20.650Z,3.30
2018-09-22T02:39:20.649Z,1.90
2018-09-22T02:40:20.657Z,2.40
2018-09-22T02:41:20.619Z,2.40
2018-09-22T02:42:20.619Z,1.70
2018-09-22T02:43:20.603Z,2.80
2018-09-22T02:44:20.590Z,1.50
2018-09-22T02:45:20.604Z,1.60
2018-09-22T02:46:20.563Z,1.80
2018-09-22T02:47:20.553Z,2.20
2018-09-22T02:48:20.553Z,1.80
2018-09-22T02:49:20.528Z,1.30
2018-09-22T02:50:20.532Z,1.30
2018-09-22T02:51:20.507Z,1.90
2018-09-22T02:52:20.497Z,1.30
2018-09-22T02:53:20.489Z,1.50
2018-09-22T02:54:20.484Z,1.60
2018-09-22T02:55:20.480Z,1.70
2018-09-22T02:56:20.458Z,1.20
2018-09-22T02:57:20.445Z,1.60
2018-09-22T02:58:20.433Z,2.30
2018-09-22T02:59:20.420Z,1.40
2018-09-22T03:00:20.443Z,1.90
2018-09-22T03:01:20.399Z,1.80
2018-09-22T03:02:20.387Z,1.00
2018-09-22T03:03:20.379Z,1.30
2018-09-22T03:04:20.366Z,1.30
2018-09-22T03:05:20.385Z,1.60
2018-09-22T03:06:20.349Z,1.70
2018-09-22T03:07:20.337Z,1.30
2018-09-22T03:08:20.324Z,1.10
2018-09-22T03:09:20.312Z,1.70
2018-09-22T03:10:20.334Z,1.70
2018-09-22T03:11:20.294Z,1.30
2018-09-22T03:12:20.291Z,2.30
2018-09-22T03:13:20.268Z,2.00
2018-09-22T03:14:20.258Z,1.30
2018-09-22T03:15:20.268Z,2.00
2018-09-22T03:16:20.254Z,1.40
2018-09-22T03:17:20.225Z,1.80
2018-09-22T03:18:20.216Z,1.50
2018-09-22T03:19:20.209Z,1.60
2018-09-22T03:20:20.190Z,1.50
2018-09-22T03:21:20.199Z,1.80
2018-09-22T03:22:20.169Z,1.40
2018-09-22T03:23:20.160Z,1.30
2018-09-22T03:24:20.156Z,1.30
2018-09-22T03:25:20.151Z,1.90
2018-09-22T03:26:20.147Z,1.80
2018-09-22T03:27:20.115Z,1.00
2018-09-22T03:28:20.107Z,1.10
2018-09-22T03:29:20.111Z,1.20
2018-09-22T03:30:20.083Z,1.10
2018-09-22T03:31:20.096Z,1.50
2018-09-22T03:32:20.061Z,1.20
2018-09-22T03:33:20.049Z,1.80
2018-09-22T03:34:20.039Z,1.60
2018-09-22T03:35:20.030Z,1.10
2018-09-22T03:36:20.045Z,1.70
2018-09-22T03:37:20.018Z,1.80
2018-09-22T03:38:19.995Z,1.50
2018-09-22T03:39:20.007Z,1.10
2018-09-22T03:40:19.979Z,1.10
2018-09-22T03:41:19.986Z,2.00
2018-09-22T03:42:19.958Z,1.30
2018-09-22T03:43:19.952Z,1.70
2018-09-22T03:44:19.930Z,0.90
2018-09-22T03:45:19.921Z,1.40
2018-09-22T03:46:19.923Z,1.50
2018-09-22T03:47:19.899Z,2.30
2018-09-22T03:48:19.885Z,2.00
2018-09-22T03:49:19.885Z,1.90
2018-09-22T03:50:19.865Z,1.70
2018-09-22T03:51:19.872Z,1.90
2018-09-22T03:52:19.859Z,1.00
2018-09-22T03:53:19.831Z,1.50
2018-09-22T03:54:19.823Z,1.50
2018-09-22T03:55:19.816Z,1.30
2018-09-22T03:56:19.817Z,1.30
2018-09-22T03:57:19.792Z,1.20
2018-09-22T03:58:19.777Z,1.20
2018-09-22T03:59:19.766Z,2.30
2018-09-22T04:00:19.755Z,1.60
2018-09-22T04:01:19.777Z,2.30
2018-09-22T04:02:19.734Z,1.10
2018-09-22T04:03:19.731Z,1.30
2018-09-22T04:04:19.718Z,1.60
2018-09-22T04:05:19.703Z,1.60
2018-09-22T04:06:19.703Z,1.40
2018-09-22T04:07:19.686Z,1.20
2018-09-22T04:08:19.673Z,1.70
2018-09-22T04:09:19.656Z,1.40
2018-09-22T04:10:19.647Z,1.30
2018-09-22T04:11:19.650Z,2.30
2018-09-22T04:12:19.630Z,1.50
2018-09-22T04:13:19.622Z,1.20
2018-09-22T04:14:19.601Z,1.50
2018-09-22T04:15:19.594Z,1.50
2018-09-22T04:16:19.596Z,1.90
2018-09-22T04:17:19.573Z,1.10
2018-09-22T04:18:19.561Z,1.50
2018-09-22T04:19:19.557Z,1.70
2018-09-22T04:20:19.548Z,1.30
2018-09-22T04:21:19.540Z,0.90
2018-09-22T04:22:19.514Z,1.10
2018-09-22T04:23:19.503Z,1.40
2018-09-22T04:24:19.492Z,1.20
2018-09-22T04:25:19.495Z,2.00
2018-09-22T04:26:19.494Z,0.80
2018-09-22T04:27:19.461Z,1.20
2018-09-22T04:28:19.449Z,1.10
2018-09-22T04:29:19.440Z,1.20
2018-09-22T04:30:19.428Z,1.20
2018-09-22T04:31:19.461Z,1.50
2018-09-22T04:32:19.404Z,1.20
2018-09-22T04:33:19.448Z,1.50
2018-09-22T04:34:19.384Z,1.20
2018-09-22T04:35:19.378Z,1.10
2018-09-22T04:36:19.369Z,0.90
2018-09-22T04:37:19.371Z,1.30
2018-09-22T04:38:19.349Z,1.50
2018-09-22T04:39:19.329Z,1.90
2018-09-22T04:40:19.318Z,1.60
2018-09-22T04:41:19.307Z,1.50
2018-09-22T04:42:19.313Z,1.20
2018-09-22T04:43:19.286Z,1.10
2018-09-22T04:44:19.285Z,1.40
2018-09-22T04:45:19.265Z,1.30
2018-09-22T04:46:19.253Z,1.20
2018-09-22T04:47:19.263Z,1.20
2018-09-22T04:48:19.242Z,1.20
2018-09-22T04:49:19.220Z,1.40
2018-09-22T04:50:19.221Z,1.20
2018-09-22T04:51:19.203Z,1.90
2018-09-22T04:52:19.206Z,1.30
2018-09-22T04:53:19.176Z,1.20
2018-09-22T04:54:19.166Z,1.30
2018-09-22T04:55:19.156Z,2.00
2018-09-22T04:56:19.157Z,1.20
2018-09-22T04:57:19.157Z,1.50
2018-09-22T04:58:19.123Z,2.00
2018-09-22T04:59:19.119Z,1.40
2018-09-22T05:00:19.101Z,1.30
2018-09-22T05:01:19.090Z,2.10
2018-09-22T05:02:19.104Z,1.10
2018-09-22T05:03:19.075Z,1.10
2018-09-22T05:04:19.062Z,1.30
2018-09-22T05:05:19.046Z,1.10
2018-09-22T05:06:19.036Z,1.20
2018-09-22T05:07:19.040Z,1.70
2018-09-22T05:08:19.025Z,1.30
2018-09-22T05:09:19.003Z,0.80
2018-09-22T05:10:19.000Z,1.10
2018-09-22T05:11:18.979Z,1.00
2018-09-22T05:12:18.983Z,1.60
2018-09-22T05:13:18.959Z,1.30
2018-09-22T05:14:18.960Z,1.30
2018-09-22T05:15:18.938Z,1.30
2018-09-22T05:16:18.934Z,1.70
2018-09-22T05:17:18.938Z,1.10
2018-09-22T05:18:18.904Z,1.40
2018-09-22T05:19:18.895Z,1.30
2018-09-22T05:20:18.899Z,1.00
2018-09-22T05:21:18.875Z,1.20
2018-09-22T05:22:18.879Z,1.90
2018-09-22T05:23:18.849Z,1.50
2018-09-22T05:24:18.838Z,1.50
2018-09-22T05:25:18.828Z,1.20
2018-09-22T05:26:18.824Z,1.40
2018-09-22T05:27:18.823Z,1.10
2018-09-22T05:28:18.797Z,1.60
2018-09-22T05:29:18.785Z,1.20
2018-09-22T05:30:18.775Z,1.00
2018-09-22T05:31:18.767Z,1.30
2018-09-22T05:32:18.788Z,1.10
2018-09-22T05:33:18.762Z,0.80
2018-09-22T05:34:18.731Z,1.60
2018-09-22T05:35:18.720Z,1.40
2018-09-22T05:36:18.709Z,1.30
2018-09-22T05:37:18.711Z,1.10
2018-09-22T05:38:18.698Z,1.30
2018-09-22T05:39:18.676Z,1.00
2018-09-22T05:40:18.665Z,1.50
2018-09-22T05:41:18.652Z,1.50
2018-09-22T05:42:18.658Z,1.30
2018-09-22T05:43:18.632Z,1.10
2018-09-22T05:44:18.637Z,1.30
2018-09-22T05:45:18.608Z,2.30
2018-09-22T05:46:18.598Z,1.10
2018-09-22T05:47:18.602Z,1.40
2018-09-22T05:48:18.579Z,2.30
2018-09-22T05:49:18.566Z,1.30
2018-09-22T05:50:18.575Z,0.90
2018-09-22T05:51:18.543Z,1.60
2018-09-22T05:52:18.549Z,2.10
2018-09-22T05:53:18.520Z,1.40
2018-09-22T05:54:18.512Z,1.10
2018-09-22T05:55:18.502Z,1.70
2018-09-22T05:56:18.499Z,1.40
2018-09-22T05:57:18.497Z,1.70
2018-09-22T05:58:18.470Z,2.20
2018-09-22T05:59:18.458Z,1.20
2018-09-22T06:00:18.448Z,1.40
2018-09-22T06:01:18.436Z,1.80
2018-09-22T06:02:18.461Z,2.10
2018-09-22T06:03:18.418Z,2.30
2018-09-22T06:04:18.403Z,1.70
2018-09-22T06:05:18.396Z,1.80
2018-09-22T06:06:18.387Z,1.80
2018-09-22T06:07:18.371Z,2.50
2018-09-22T06:08:18.373Z,2.50
2018-09-22T06:09:18.354Z,1.60
2018-09-22T06:10:18.336Z,2.10
2018-09-22T06:11:18.327Z,1.90
2018-09-22T06:12:18.329Z,1.90
2018-09-22T06:13:18.317Z,2.00
2018-09-22T06:14:18.293Z,1.00
2018-09-22T06:15:18.290Z,1.80
2018-09-22T06:16:18.271Z,1.50
2018-09-22T06:17:18.273Z,2.00
2018-09-22T06:18:18.274Z,1.10
2018-09-22T06:19:18.238Z,2.00
2018-09-22T06:20:18.228Z,2.30
2018-09-22T06:21:18.223Z,2.30
2018-09-22T06:22:18.205Z,1.90
2018-09-22T06:23:18.213Z,1.60
2018-09-22T06:24:18.182Z,3.00
2018-09-22T06:25:18.172Z,1.10
2018-09-22T06:26:18.166Z,1.40
2018-09-22T06:27:18.165Z,0.80
2018-09-22T06:28:18.162Z,1.50
2018-09-22T06:29:18.128Z,1.30
2018-09-22T06:30:18.118Z,1.30
2018-09-22T06:31:18.109Z,1.70
2018-09-22T06:32:18.098Z,1.30
2018-09-22T06:33:18.116Z,1.10
2018-09-22T06:34:18.078Z,1.40
2018-09-22T06:35:18.065Z,2.40
2018-09-22T06:36:18.052Z,2.20
2018-09-22T06:37:18.059Z,1.70
2018-09-22T06:38:18.052Z,2.70
2018-09-22T06:39:18.027Z,2.10
2018-09-22T06:40:18.015Z,2.90
2018-09-22T06:41:18.007Z,2.70
2018-09-22T06:42:17.992Z,2.90
2018-09-22T06:43:17.991Z,1.60
2018-09-22T06:44:17.965Z,3.30
2018-09-22T06:45:17.963Z,1.80
2018-09-22T06:46:17.981Z,1.30
2018-09-22T06:47:17.934Z,2.90
2018-09-22T06:48:17.937Z,3.40
2018-09-22T06:49:17.923Z,1.80
2018-09-22T06:50:17.902Z,3.40
2018-09-22T06:51:17.898Z,1.50
2018-09-22T06:52:17.880Z,2.50
2018-09-22T06:53:17.887Z,1.80
2018-09-22T06:54:17.857Z,2.60
2018-09-22T06:55:17.852Z,1.30
2018-09-22T06:56:17.840Z,2.60
2018-09-22T06:57:17.824Z,2.00
2018-09-22T06:58:17.844Z,2.30
2018-09-22T06:59:17.802Z,2.30
2018-09-22T07:00:17.791Z,2.10
2018-09-22T07:01:17.781Z,2.00
2018-09-22T07:02:17.778Z,2.40
2018-09-22T07:03:17.777Z,1.80
2018-09-22T07:04:17.746Z,1.40
2018-09-22T07:05:17.735Z,2.40
2018-09-22T07:06:17.781Z,1.90
2018-09-22T07:07:17.718Z,2.40
2018-09-22T07:08:17.724Z,2.00
2018-09-22T07:09:17.693Z,2.60
2018-09-22T07:10:17.683Z,2.00
2018-09-22T07:11:17.673Z,2.80
2018-09-22T07:12:17.669Z,1.60
2018-09-22T07:13:17.664Z,2.60
2018-09-22T07:14:17.638Z,3.00
2018-09-22T07:15:17.630Z,2.30
2018-09-22T07:16:17.620Z,2.40
2018-09-22T07:17:17.605Z,1.70
2018-09-22T07:18:17.621Z,2.90
2018-09-22T07:19:17.586Z,2.50
2018-09-22T07:20:17.574Z,3.40
2018-09-22T07:21:17.565Z,2.00
2018-09-22T07:22:17.550Z,2.60
2018-09-22T07:23:17.555Z,4.40
2018-09-22T07:24:17.541Z,3.70
2018-09-22T07:25:17.552Z,2.20
2018-09-22T07:26:17.508Z,2.30
2018-09-22T07:27:17.497Z,2.40
2018-09-22T07:28:17.502Z,2.50
2018-09-22T07:29:17.475Z,2.80
2018-09-22T07:30:17.481Z,2.20
2018-09-22T07:31:17.453Z,2.40
2018-09-22T07:32:17.443Z,2.30
2018-09-22T07:33:17.446Z,2.00
2018-09-22T07:34:17.420Z,2.60
2018-09-22T07:35:17.419Z,2.50
2018-09-22T07:36:17.424Z,2.20
2018-09-22T07:37:17.387Z,2.10
2018-09-22T07:38:17.405Z,2.30
2018-09-22T07:39:17.406Z,3.90
2018-09-22T07:40:17.353Z,2.10
2018-09-22T07:41:17.342Z,2.70
2018-09-22T07:42:17.347Z,2.00
2018-09-22T07:43:17.323Z,2.80
2018-09-22T07:44:17.325Z,2.10
2018-09-22T07:45:17.301Z,2.50
2018-09-22T07:46:17.289Z,2.00
2018-09-22T07:47:17.281Z,2.40
2018-09-22T07:48:17.281Z,2.70
2018-09-22T07:49:17.271Z,2.50
2018-09-22T07:50:17.246Z,2.80
2018-09-22T07:51:17.240Z,2.50
2018-09-22T07:52:17.275Z,2.80
2018-09-22T07:53:17.212Z,2.60
2018-09-22T07:54:17.236Z,2.50
2018-09-22T07:55:17.197Z,2.10
2018-09-22T07:56:17.181Z,2.00
2018-09-22T07:57:17.202Z,2.70
2018-09-22T07:58:17.159Z,5.10
2018-09-22T07:59:17.170Z,8.30
2018-09-22T08:00:17.173Z,11.00
2018-09-22T08:01:17.125Z,9.70
2018-09-22T08:02:17.115Z,10.70
2018-09-22T08:03:17.105Z,7.60
2018-09-22T08:04:17.107Z,4.40
2018-09-22T08:05:17.085Z,5.00
2018-09-22T08:06:17.084Z,6.30
2018-09-22T08:07:17.059Z,4.90
2018-09-22T08:08:17.049Z,4.20
2018-09-22T08:09:17.054Z,4.70
2018-09-22T08:10:17.027Z,3.80
2018-09-22T08:11:17.018Z,4.90
2018-09-22T08:12:17.018Z,4.30
2018-09-22T08:13:16.994Z,3.70
2018-09-22T08:14:16.999Z,4.20
2018-09-22T08:15:16.976Z,3.40
2018-09-22T08:16:16.962Z,3.70
2018-09-22T08:17:16.952Z,4.30
2018-09-22T08:18:16.952Z,4.70
2018-09-22T08:19:16.945Z,2.50
2018-09-22T08:20:16.924Z,4.00
2018-09-22T08:21:16.908Z,5.60
2018-09-22T08:22:16.898Z,5.80
2018-09-22T08:23:16.888Z,4.70
2018-09-22T08:24:16.900Z,5.30
2018-09-22T08:25:16.935Z,2.40
2018-09-22T08:26:16.852Z,4.20
2018-09-22T08:27:16.843Z,4.70
2018-09-22T08:28:16.831Z,4.90
2018-09-22T08:29:16.835Z,4.70
2018-09-22T08:30:16.824Z,2.40
2018-09-22T08:31:16.803Z,2.90
2018-09-22T08:32:16.802Z,3.40
2018-09-22T08:33:16.780Z,3.00
2018-09-22T08:34:16.796Z,2.70
2018-09-22T08:35:16.754Z,3.80
2018-09-22T08:36:16.800Z,3.50
2018-09-22T08:37:16.769Z,3.30
2018-09-22T08:38:16.724Z,2.40
2018-09-22T08:39:16.818Z,4.00
2018-09-22T08:40:16.701Z,2.90
2018-09-22T08:41:16.689Z,2.70
2018-09-22T08:42:16.679Z,4.80
2018-09-22T08:43:16.671Z,3.10
2018-09-22T08:44:16.770Z,3.90
2018-09-22T08:45:16.645Z,2.70
2018-09-22T08:46:16.634Z,3.20
2018-09-22T08:47:16.625Z,2.30
2018-09-22T08:48:16.620Z,3.10
2018-09-22T08:49:16.632Z,2.80
2018-09-22T08:50:16.629Z,4.10
2018-09-22T08:51:16.581Z,3.80
2018-09-22T08:52:16.571Z,3.30
2018-09-22T08:53:16.558Z,3.40
2018-09-22T08:54:16.550Z,2.20
2018-09-22T08:55:16.556Z,2.90
2018-09-22T08:56:16.535Z,2.60
2018-09-22T08:57:16.515Z,2.20
2018-09-22T08:58:16.504Z,3.10
2018-09-22T08:59:16.493Z,3.20
2018-09-22T09:00:16.500Z,2.30
2018-09-22T09:01:16.473Z,2.50
2018-09-22T09:02:16.471Z,2.00
2018-09-22T09:03:16.452Z,4.40
2018-09-22T09:04:16.440Z,2.30
2018-09-22T09:05:16.446Z,2.40
2018-09-22T09:06:16.417Z,2.80
2018-09-22T09:07:16.407Z,3.00
2018-09-22T09:08:16.403Z,3.50
2018-09-22T09:09:16.384Z,2.90
2018-09-22T09:10:16.391Z,3.70
2018-09-22T09:11:16.370Z,2.10
2018-09-22T09:12:16.351Z,3.00
2018-09-22T09:13:16.414Z,2.20
2018-09-22T09:14:16.334Z,3.40
2018-09-22T09:15:16.340Z,2.30
2018-09-22T09:16:16.313Z,2.70
2018-09-22T09:17:16.299Z,2.90
2018-09-22T09:18:16.285Z,2.30
2018-09-22T09:19:16.279Z,3.40
2018-09-22T09:20:16.285Z,2.60
2018-09-22T09:21:16.277Z,3.20
2018-09-22T09:22:16.244Z,2.50
2018-09-22T09:23:16.233Z,3.70
2018-09-22T09:24:16.221Z,2.90
2018-09-22T09:25:16.225Z,2.60
2018-09-22T09:26:16.204Z,2.40
2018-09-22T09:27:16.208Z,2.90
2018-09-22T09:28:16.185Z,2.90
2018-09-22T09:29:16.167Z,2.20
2018-09-22T09:30:16.170Z,2.00
2018-09-22T09:31:16.154Z,2.10
2018-09-22T09:32:16.143Z,2.40
2018-09-22T09:33:16.146Z,1.80
2018-09-22T09:34:16.112Z,1.70
2018-09-22T09:35:16.117Z,2.10
2018-09-22T09:36:16.092Z,2.10
2018-09-22T09:37:16.079Z,3.60
2018-09-22T09:38:16.073Z,3.20
2018-09-22T09:39:16.074Z,3.00
2018-09-22T09:40:16.065Z,3.80
2018-09-22T09:41:16.038Z,4.30
2018-09-22T09:42:16.026Z,3.50
2018-09-22T09:43:16.056Z,2.90
2018-09-22T09:44:16.018Z,5.80
2018-09-22T09:45:16.026Z,7.20
2018-09-22T09:46:15.980Z,9.00
2018-09-22T09:47:15.970Z,10.40
2018-09-22T09:48:15.959Z,14.40
2018-09-22T09:49:15.948Z,77.90
2018-09-22T09:50:15.962Z,98.40
2018-09-22T09:51:15.927Z,92.30
2018-09-22T09:52:15.927Z,88.50
2018-09-22T09:53:15.905Z,71.70
2018-09-22T09:54:15.894Z,63.50
2018-09-22T09:55:15.900Z,66.10
2018-09-22T09:56:15.881Z,61.40
2018-09-22T09:57:15.863Z,54.90
2018-09-22T09:58:15.859Z,55.30
2018-09-22T09:59:15.840Z,56.00
2018-09-22T10:00:15.845Z,57.70
2018-09-22T10:01:15.818Z,59.00
2018-09-22T10:02:15.821Z,54.60
2018-09-22T10:03:15.833Z,59.80
2018-09-22T10:04:15.796Z,62.80
2018-09-22T10:05:15.797Z,63.30
2018-09-22T10:06:15.765Z,67.90
2018-09-22T10:07:15.755Z,72.50
2018-09-22T10:08:15.743Z,80.30
2018-09-22T10:09:15.731Z,83.90
2018-09-22T10:10:15.893Z,104.30
2018-09-22T10:11:15.711Z,99.80
2018-09-22T10:12:15.699Z,107.60
2018-09-22T10:13:15.692Z,104.30
2018-09-22T10:14:16.410Z,105.60
2018-09-22T10:15:15.665Z,97.10
2018-09-22T10:16:15.678Z,93.70
2018-09-22T10:17:15.646Z,91.60
2018-09-22T10:18:15.646Z,84.00
2018-09-22T10:19:15.624Z,78.40
2018-09-22T10:20:15.669Z,77.80
2018-09-22T10:21:15.921Z,72.50
2018-09-22T10:22:15.601Z,60.90
2018-09-22T10:23:15.591Z,55.70
2018-09-22T10:24:15.573Z,54.50
2018-09-22T10:25:15.556Z,55.00
2018-09-22T10:26:15.569Z,50.50
2018-09-22T10:27:15.534Z,54.50
2018-09-22T10:28:15.564Z,54.80
2018-09-22T10:29:15.523Z,50.90
2018-09-22T10:30:15.501Z,47.40
2018-09-22T10:31:15.505Z,45.90
2018-09-22T10:32:15.481Z,40.80
2018-09-22T10:33:15.467Z,39.30
2018-09-22T10:34:15.475Z,39.10
2018-09-22T10:35:15.449Z,31.20
2018-09-22T10:36:15.453Z,33.10
2018-09-22T10:37:15.426Z,32.70
2018-09-22T10:38:15.414Z,34.30
2018-09-22T10:39:15.415Z,32.80
2018-09-22T10:40:15.395Z,29.00
2018-09-22T10:41:15.402Z,27.80
2018-09-22T10:42:15.438Z,28.70
2018-09-22T10:43:15.361Z,27.60
2018-09-22T10:44:15.355Z,22.80
2018-09-22T10:45:15.353Z,26.30
2018-09-22T10:46:15.345Z,24.90
2018-09-22T10:47:15.354Z,25.60
2018-09-22T10:48:15.305Z,23.10
2018-09-22T10:49:15.297Z,21.00
2018-09-22T10:50:15.285Z,23.20
2018-09-22T10:51:15.304Z,19.10
2018-09-22T10:52:15.263Z,21.80
2018-09-22T10:53:15.251Z,20.00
2018-09-22T10:54:15.241Z,20.50
2018-09-22T10:55:15.229Z,19.30
2018-09-22T10:56:15.238Z,20.30
2018-09-22T10:57:15.219Z,16.70
2018-09-22T10:58:15.199Z,15.10
2018-09-22T10:59:15.185Z,16.50
2018-09-22T11:00:15.175Z,17.90
2018-09-22T11:01:15.183Z,15.50
2018-09-22T11:02:15.159Z,17.20
2018-09-22T11:03:15.159Z,17.00
2018-09-22T11:04:15.133Z,17.80
2018-09-22T11:05:15.121Z,19.00
2018-09-22T11:06:15.125Z,16.60
2018-09-22T11:07:15.103Z,15.90
2018-09-22T11:08:15.091Z,16.70
2018-09-22T11:09:15.083Z,17.00
2018-09-22T11:10:15.074Z,16.70
2018-09-22T11:11:15.075Z,15.40
2018-09-22T11:12:15.046Z,17.80
2018-09-22T11:13:15.034Z,15.60
2018-09-22T11:14:15.038Z,15.70
2018-09-22T11:15:15.013Z,13.40
2018-09-22T11:16:15.021Z,11.80
2018-09-22T11:17:15.002Z,14.70
2018-09-22T11:18:14.981Z,13.80
2018-09-22T11:19:14.971Z,12.80
2018-09-22T11:20:14.974Z,12.10
2018-09-22T11:21:14.969Z,11.40
2018-09-22T11:22:14.937Z,10.70
2018-09-22T11:23:14.927Z,15.60
2018-09-22T11:24:14.917Z,11.50
2018-09-22T11:25:14.914Z,10.30
2018-09-22T11:26:14.914Z,13.20
2018-09-22T11:27:14.889Z,12.00
2018-09-22T11:28:14.871Z,11.20
2018-09-22T11:29:14.864Z,10.80
2018-09-22T11:30:14.855Z,10.80
2018-09-22T11:31:14.858Z,12.00
2018-09-22T11:32:14.832Z,11.30
2018-09-22T11:33:14.821Z,8.80
2018-09-22T11:34:14.813Z,7.60
2018-09-22T11:35:14.798Z,9.90
2018-09-22T11:36:14.810Z,7.90
2018-09-22T11:37:14.785Z,8.70
2018-09-22T11:38:14.773Z,8.70
2018-09-22T11:39:14.751Z,8.10
2018-09-22T11:40:14.741Z,7.20
2018-09-22T11:41:14.738Z,7.80
2018-09-22T11:42:14.735Z,8.60
2018-09-22T11:43:14.709Z,7.60
2018-09-22T11:44:14.697Z,9.70
2018-09-22T11:45:14.684Z,6.60
2018-09-22T11:46:14.683Z,6.80
2018-09-22T11:47:14.692Z,6.60
2018-09-22T11:48:14.658Z,6.80
2018-09-22T11:49:14.640Z,7.40
2018-09-22T11:50:14.631Z,6.90
2018-09-22T11:51:14.618Z,7.30
2018-09-22T11:52:14.624Z,8.20
2018-09-22T11:53:14.605Z,6.10
2018-09-22T11:54:14.588Z,6.20
2018-09-22T11:55:14.576Z,6.00
2018-09-22T11:56:14.564Z,6.40
2018-09-22T11:57:14.573Z,6.50
2018-09-22T11:58:14.543Z,5.70
2018-09-22T11:59:14.546Z,8.40
2018-09-22T12:00:14.521Z,5.20
2018-09-22T12:01:14.511Z,6.00
2018-09-22T12:02:14.513Z,5.90
2018-09-22T12:03:14.489Z,6.20
2018-09-22T12:04:14.481Z,6.10
2018-09-22T12:05:14.485Z,5.60
2018-09-22T12:06:14.521Z,5.10
2018-09-22T12:07:14.463Z,5.10
2018-09-22T12:08:14.437Z,6.00
2018-09-22T12:09:14.424Z,5.60
2018-09-22T12:10:14.416Z,4.80
2018-09-22T12:11:14.410Z,4.90
2018-09-22T12:12:14.409Z,7.10
2018-09-22T12:13:14.380Z,5.00
2018-09-22T12:14:14.371Z,4.10
2018-09-22T12:15:14.359Z,3.90
2018-09-22T12:16:14.359Z,4.70
2018-09-22T12:17:14.369Z,5.40
2018-09-22T12:18:14.325Z,4.00
2018-09-22T12:19:14.315Z,5.20
2018-09-22T12:20:14.309Z,3.70
2018-09-22T12:21:14.323Z,4.40
2018-09-22T12:22:14.298Z,3.50
2018-09-22T12:23:14.281Z,4.70
2018-09-22T12:24:14.260Z,5.40
2018-09-22T12:25:14.251Z,5.10
2018-09-22T12:26:14.240Z,3.70
2018-09-22T12:27:14.247Z,3.60
2018-09-22T12:28:14.218Z,3.50
2018-09-22T12:29:14.214Z,3.60
2018-09-22T12:30:14.201Z,3.00
2018-09-22T12:31:14.186Z,3.90
2018-09-22T12:32:14.192Z,4.20
2018-09-22T12:33:14.171Z,3.60
2018-09-22T12:34:14.153Z,3.70
2018-09-22T12:35:14.149Z,4.10
2018-09-22T12:36:14.132Z,3.80
2018-09-22T12:37:14.143Z,3.90
2018-09-22T12:38:14.110Z,5.30
2018-09-22T12:39:14.098Z,2.70
2018-09-22T12:40:14.088Z,4.00
2018-09-22T12:41:14.085Z,4.00
2018-09-22T12:42:14.102Z,3.60
2018-09-22T12:43:14.056Z,3.10
2018-09-22T12:44:14.046Z,4.10
2018-09-22T12:45:14.057Z,4.00
2018-09-22T12:46:14.101Z,5.00
2018-09-22T12:47:14.028Z,2.80
2018-09-22T12:48:14.010Z,3.20
2018-09-22T12:49:13.997Z,3.80
2018-09-22T12:50:13.979Z,3.10
2018-09-22T12:51:13.970Z,3.30
2018-09-22T12:52:13.973Z,4.90
2018-09-22T12:53:13.963Z,4.50
2018-09-22T12:54:13.952Z,3.40
2018-09-22T12:55:13.930Z,4.00
2018-09-22T12:56:13.921Z,4.30
2018-09-22T12:57:15.015Z,3.10
2018-09-22T12:58:13.894Z,3.60
2018-09-22T12:59:13.898Z,3.10
2018-09-22T13:00:13.876Z,3.50
2018-09-22T13:01:13.871Z,3.80
2018-09-22T13:02:13.881Z,2.70
2018-09-22T13:03:13.840Z,3.60
2018-09-22T13:04:13.830Z,4.10
2018-09-22T13:05:13.825Z,3.40
2018-09-22T13:06:13.809Z,2.70
2018-09-22T13:07:13.807Z,3.20
2018-09-22T13:08:13.800Z,3.20
2018-09-22T13:09:13.795Z,4.40
2018-09-22T13:10:13.766Z,4.20
2018-09-22T13:11:13.756Z,3.20
2018-09-22T13:12:13.756Z,4.40
2018-09-22T13:13:13.737Z,4.10
2018-09-22T13:14:13.760Z,2.80